createdAt,value
2018-11-25T00:00:20.628Z,19.77
2018-11-25T00:02:49.248Z,21.23
2018-11-25T00:05:17.850Z,21.63
2018-11-25T00:07:46.447Z,22.33
2018-11-25T00:10:22.126Z,23.00
2018-11-25T00:12:50.815Z,19.67
2018-11-25T00:15:19.499Z,20.27
2018-11-25T00:17:48.158Z,19.70
2018-11-25T00:20:16.765Z,19.73
2018-11-25T00:22:45.398Z,20.63
2018-11-25T00:25:14.747Z,21.33
2018-11-25T00:27:43.364Z,20.47
2018-11-25T00:30:16.399Z,20.97
2018-11-25T00:32:45.106Z,20.40
2018-11-25T00:35:14.903Z,20.23
2018-11-25T00:37:47.991Z,21.00
2018-11-25T00:40:14.218Z,20.93
2018-11-25T00:42:43.188Z,19.57
2018-11-25T00:45:14.230Z,20.63
2018-11-25T00:47:42.859Z,19.43
2018-11-25T00:50:12.615Z,21.40
2018-11-25T00:52:41.261Z,21.20
2018-11-25T00:55:12.158Z,19.47
2018-11-25T00:57:40.767Z,19.57
2018-11-25T01:00:12.368Z,19.33
2018-11-25T01:02:41.079Z,19.33
2018-11-25T01:05:10.235Z,19.60
2018-11-25T01:07:38.886Z,19.97
2018-11-25T01:10:10.413Z,20.47
2018-11-25T01:12:39.048Z,21.03
2018-11-25T01:15:12.344Z,21.10
2018-11-25T01:17:41.035Z,16.73
2018-11-25T01:20:14.773Z,20.20
2018-11-25T01:22:43.400Z,20.97
2018-11-25T01:25:12.288Z,18.67
2018-11-25T01:27:40.866Z,19.50
2018-11-25T01:30:12.724Z,19.93
2018-11-25T01:32:41.385Z,18.43
2018-11-25T01:35:11.728Z,21.03
2018-11-25T01:37:40.449Z,18.70
2018-11-25T01:40:15.835Z,17.73
2018-11-25T01:42:44.570Z,19.03
2018-11-25T01:45:14.240Z,20.67
2018-11-25T01:47:42.875Z,18.70
2018-11-25T01:50:13.610Z,19.70
2018-11-25T01:52:42.233Z,21.90
2018-11-25T01:55:12.061Z,21.50
2018-11-25T01:57:40.700Z,22.73
2018-11-25T02:00:13.476Z,20.47
2018-11-25T02:02:42.151Z,20.83
2018-11-25T02:05:10.837Z,23.00
2018-11-25T02:07:39.465Z,20.80
2018-11-25T02:10:10.347Z,21.47
2018-11-25T02:12:38.971Z,21.27
2018-11-25T02:15:09.132Z,23.77
2018-11-25T02:17:37.763Z,23.40
2018-11-25T02:20:10.243Z,24.33
2018-11-25T02:22:38.868Z,23.10
2018-11-25T02:25:07.806Z,21.40
2018-11-25T02:27:36.419Z,22.10
2018-11-25T02:30:07.281Z,21.30
2018-11-25T02:32:35.889Z,21.87
2018-11-25T02:35:05.072Z,22.50
2018-11-25T02:37:33.679Z,21.00
2018-11-25T02:40:02.289Z,24.00
2018-11-25T02:42:30.883Z,22.83
2018-11-25T02:44:59.499Z,22.97
2018-11-25T02:47:28.094Z,21.10
2018-11-25T02:49:56.688Z,22.20
2018-11-25T02:52:25.331Z,19.83
2018-11-25T02:54:53.927Z,22.60
2018-11-25T02:57:23.488Z,19.63
2018-11-25T02:59:52.935Z,19.27
2018-11-25T03:02:21.813Z,19.97
2018-11-25T03:04:50.440Z,20.37
2018-11-25T03:07:19.061Z,21.60
2018-11-25T03:09:47.648Z,21.23
2018-11-25T03:12:16.275Z,19.60
2018-11-25T03:14:44.898Z,20.40
2018-11-25T03:17:13.504Z,19.13
2018-11-25T03:19:42.115Z,18.27
2018-11-25T03:22:10.717Z,22.47
2018-11-25T03:24:39.334Z,20.03
2018-11-25T03:27:07.931Z,19.97
2018-11-25T03:29:36.621Z,19.20
2018-11-25T03:32:05.284Z,19.90
2018-11-25T03:34:33.859Z,21.07
2018-11-25T03:37:02.484Z,20.60
2018-11-25T03:39:31.073Z,20.83
2018-11-25T03:41:59.695Z,18.60
2018-11-25T03:44:28.288Z,20.63
2018-11-25T03:46:56.890Z,17.70
2018-11-25T03:49:25.948Z,20.37
2018-11-25T03:51:54.528Z,19.50
2018-11-25T03:54:23.128Z,19.10
2018-11-25T03:56:51.743Z,19.40
2018-11-25T03:59:20.340Z,18.53
2018-11-25T04:01:48.975Z,19.63
2018-11-25T04:04:17.574Z,16.63
2018-11-25T04:06:46.161Z,17.73
2018-11-25T04:09:14.783Z,15.90
2018-11-25T04:11:43.392Z,17.90
2018-11-25T04:14:11.995Z,16.63
2018-11-25T04:16:40.596Z,17.57
2018-11-25T04:19:09.200Z,15.93
2018-11-25T04:21:37.812Z,15.90
2018-11-25T04:24:06.573Z,14.70
2018-11-25T04:26:35.191Z,15.50
2018-11-25T04:29:03.799Z,16.10
2018-11-25T04:31:32.387Z,16.13
2018-11-25T04:34:00.987Z,15.27
2018-11-25T04:36:29.608Z,14.30
2018-11-25T04:38:58.219Z,14.47
2018-11-25T04:41:26.847Z,12.70
2018-11-25T04:43:55.451Z,14.50
2018-11-25T04:46:24.048Z,13.87
2018-11-25T04:48:52.696Z,14.50
2018-11-25T04:51:21.319Z,15.77
2018-11-25T04:53:49.903Z,14.73
2018-11-25T04:56:18.487Z,14.40
2018-11-25T04:58:47.107Z,14.00
2018-11-25T05:01:15.696Z,13.90
2018-11-25T05:03:44.309Z,12.80
2018-11-25T05:06:12.904Z,14.50
2018-11-25T05:08:41.516Z,13.33
2018-11-25T05:11:10.140Z,13.23
2018-11-25T05:13:38.747Z,12.63
2018-11-25T05:16:07.343Z,15.70
2018-11-25T05:18:35.953Z,11.10
2018-11-25T05:21:04.582Z,13.60
2018-11-25T05:23:33.181Z,12.77
2018-11-25T05:26:01.868Z,12.43
2018-11-25T05:28:30.463Z,12.60
2018-11-25T05:30:59.075Z,12.03
2018-11-25T05:33:27.678Z,13.30
2018-11-25T05:35:56.275Z,10.73
2018-11-25T05:38:24.895Z,12.70
2018-11-25T05:40:53.727Z,11.70
2018-11-25T05:43:22.319Z,12.63
2018-11-25T05:45:50.918Z,11.57
2018-11-25T05:48:19.507Z,13.10
2018-11-25T05:50:48.139Z,13.73
2018-11-25T05:53:16.739Z,13.57
2018-11-25T05:55:45.812Z,13.90
2018-11-25T05:58:14.427Z,14.37
2018-11-25T06:00:43.106Z,13.67
2018-11-25T06:03:11.684Z,14.20
2018-11-25T06:05:40.275Z,14.60
2018-11-25T06:08:08.911Z,14.43
2018-11-25T06:10:37.511Z,13.53
2018-11-25T06:13:06.399Z,13.43
2018-11-25T06:15:35.168Z,14.10
2018-11-25T06:18:03.815Z,14.70
2018-11-25T06:20:32.417Z,13.10
2018-11-25T06:23:01.003Z,14.17
2018-11-25T06:25:29.618Z,14.63
2018-11-25T06:27:58.211Z,14.30
2018-11-25T06:30:26.831Z,15.10
2018-11-25T06:32:55.466Z,14.13
2018-11-25T06:35:24.084Z,14.00
2018-11-25T06:37:52.697Z,13.67
2018-11-25T06:40:21.380Z,15.27
2018-11-25T06:42:49.999Z,13.63
2018-11-25T06:45:20.949Z,12.33
2018-11-25T06:47:49.627Z,12.93
2018-11-25T06:50:18.233Z,12.10
2018-11-25T06:52:46.849Z,12.63
2018-11-25T06:55:15.494Z,14.13
2018-11-25T06:57:44.127Z,12.73
2018-11-25T07:00:17.575Z,12.90
2018-11-25T07:02:46.199Z,13.90
2018-11-25T07:05:14.837Z,13.17
2018-11-25T07:07:43.768Z,14.60
2018-11-25T07:10:20.275Z,14.83
2018-11-25T07:12:50.366Z,14.00
2018-11-25T07:15:19.266Z,14.67
2018-11-25T07:17:47.926Z,13.90
2018-11-25T07:20:17.275Z,16.03
2018-11-25T07:22:47.816Z,15.13
2018-11-25T07:25:18.354Z,16.60
2018-11-25T07:27:46.978Z,17.23
2018-11-25T07:30:22.419Z,15.37
2018-11-25T07:32:51.099Z,16.50
2018-11-25T07:35:19.740Z,15.60
2018-11-25T07:37:48.388Z,16.17
2018-11-25T07:40:18.755Z,17.70
2018-11-25T07:42:47.399Z,17.87
2018-11-25T07:45:30.105Z,20.53
2018-11-25T07:47:54.072Z,18.60
2018-11-25T07:50:23.049Z,19.07
2018-11-25T07:52:52.056Z,18.07
2018-11-25T07:55:22.874Z,18.50
2018-11-25T07:57:52.808Z,20.43
2018-11-25T08:00:22.460Z,19.77
2018-11-25T08:02:51.076Z,19.83
2018-11-25T08:05:21.788Z,21.17
2018-11-25T08:07:50.398Z,21.30
2018-11-25T08:10:19.007Z,22.30
2018-11-25T08:12:48.167Z,21.90
2018-11-25T08:15:18.658Z,22.47
2018-11-25T08:17:47.326Z,21.70
2018-11-25T08:20:17.663Z,21.70
2018-11-25T08:22:46.283Z,19.30
2018-11-25T08:25:18.627Z,20.20
2018-11-25T08:27:47.287Z,19.63
2018-11-25T08:30:19.914Z,19.87
2018-11-25T08:32:48.556Z,19.00
2018-11-25T08:35:17.582Z,20.23
2018-11-25T08:37:46.235Z,19.70
2018-11-25T08:40:24.005Z,19.60
2018-11-25T08:42:52.822Z,19.23
2018-11-25T08:45:21.486Z,18.13
2018-11-25T08:47:50.114Z,18.37
2018-11-25T08:50:20.262Z,18.90
2018-11-25T08:52:52.686Z,18.63
2018-11-25T08:55:23.197Z,17.57
2018-11-25T08:57:51.820Z,17.43
2018-11-25T09:00:21.471Z,18.27
2018-11-25T09:02:50.844Z,18.60
2018-11-25T09:05:19.452Z,18.00
2018-11-25T09:07:48.077Z,15.90
2018-11-25T09:10:18.553Z,19.27
2018-11-25T09:12:55.295Z,17.53
2018-11-25T09:15:29.675Z,16.57
2018-11-25T09:17:58.350Z,17.90
2018-11-25T09:20:26.986Z,17.03
2018-11-25T09:22:55.632Z,17.97
2018-11-25T09:25:26.394Z,16.27
2018-11-25T09:27:55.330Z,17.27
2018-11-25T09:30:26.025Z,16.37
2018-11-25T09:32:54.651Z,16.47
2018-11-25T09:35:23.703Z,16.77
2018-11-25T09:37:52.327Z,16.07
2018-11-25T09:40:24.076Z,16.03
2018-11-25T09:42:52.675Z,17.77
2018-11-25T09:45:21.380Z,14.57
2018-11-25T09:47:50.412Z,16.67
2018-11-25T09:50:21.575Z,17.00
2018-11-25T09:52:50.223Z,15.70
2018-11-25T09:55:20.780Z,17.90
2018-11-25T09:57:55.702Z,14.13
2018-11-25T10:00:26.484Z,15.93
2018-11-25T10:02:55.209Z,17.37
2018-11-25T10:05:23.901Z,16.77
2018-11-25T10:07:52.822Z,16.27
2018-11-25T10:10:22.659Z,29.03
2018-11-25T10:12:51.562Z,37.17
2018-11-25T10:15:23.059Z,29.93
2018-11-25T10:17:59.078Z,31.57
2018-11-25T10:20:21.460Z,53.00
2018-11-25T10:22:50.073Z,66.93
2018-11-25T10:25:18.756Z,70.57
2018-11-25T10:27:47.421Z,56.93
2018-11-25T10:30:20.919Z,62.83
2018-11-25T10:32:58.366Z,71.67
2018-11-25T10:35:26.961Z,48.10
2018-11-25T10:37:55.608Z,43.20
2018-11-25T10:40:24.875Z,33.87
2018-11-25T10:42:53.521Z,31.43
2018-11-25T10:45:26.279Z,30.77
2018-11-25T10:47:55.550Z,27.13
2018-11-25T10:50:24.312Z,26.37
2018-11-25T10:52:52.915Z,26.47
2018-11-25T10:55:28.144Z,22.03
2018-11-25T10:57:56.773Z,21.23
2018-11-25T11:00:33.012Z,23.97
2018-11-25T11:03:06.906Z,21.07
2018-11-25T11:05:58.946Z,19.53
2018-11-25T11:08:27.611Z,17.83
2018-11-25T11:10:56.230Z,17.90
2018-11-25T11:13:24.829Z,17.47
2018-11-25T11:15:53.450Z,18.03
2018-11-25T11:18:34.228Z,21.70
2018-11-25T11:21:02.861Z,38.57
2018-11-25T11:23:31.457Z,38.33
2018-11-25T11:26:06.670Z,41.53
2018-11-25T11:28:28.736Z,50.83
2018-11-25T11:30:57.346Z,46.90
2018-11-25T11:33:25.938Z,39.40
2018-11-25T11:35:55.920Z,38.67
2018-11-25T11:38:24.955Z,47.57
2018-11-25T11:40:53.574Z,46.43
2018-11-25T11:43:22.164Z,34.80
2018-11-25T11:45:50.747Z,47.83
2018-11-25T11:48:19.377Z,49.30
2018-11-25T11:50:48.007Z,37.60
2018-11-25T11:53:16.592Z,41.07
2018-11-25T11:55:45.195Z,52.70
2018-11-25T11:58:13.836Z,74.23
2018-11-25T12:00:42.472Z,59.77
2018-11-25T12:03:11.259Z,85.73
2018-11-25T12:05:39.862Z,53.17
2018-11-25T12:08:08.638Z,49.03
2018-11-25T12:10:37.236Z,52.00
2018-11-25T12:13:06.610Z,40.87
2018-11-25T12:15:35.246Z,49.50
2018-11-25T12:18:03.892Z,46.13
2018-11-25T12:20:32.691Z,42.60
2018-11-25T12:23:01.538Z,35.90
2018-11-25T12:25:30.168Z,49.90
2018-11-25T12:27:58.790Z,41.63
2018-11-25T12:30:27.423Z,54.30
2018-11-25T12:32:56.143Z,41.70
2018-11-25T12:35:24.768Z,34.70
2018-11-25T12:37:53.399Z,31.50
2018-11-25T12:40:22.904Z,43.33
2018-11-25T12:42:59.033Z,37.30
2018-11-25T12:45:28.145Z,41.97
2018-11-25T12:47:56.809Z,37.60
2018-11-25T12:50:26.389Z,40.20
2018-11-25T12:52:55.534Z,34.57
2018-11-25T12:55:25.259Z,33.90
2018-11-25T12:57:54.154Z,30.10
2018-11-25T13:00:30.191Z,31.40
2018-11-25T13:02:59.072Z,25.30
2018-11-25T13:05:27.958Z,25.07
2018-11-25T13:07:56.896Z,21.07
2018-11-25T13:10:25.543Z,24.77
2018-11-25T13:12:54.191Z,20.93
2018-11-25T13:15:22.839Z,19.53
2018-11-25T13:17:51.455Z,18.10
2018-11-25T13:20:20.041Z,17.47
2018-11-25T13:22:48.652Z,17.27
2018-11-25T13:25:17.863Z,17.43
2018-11-25T13:27:46.487Z,18.23
2018-11-25T13:30:23.755Z,15.83
2018-11-25T13:32:54.504Z,15.80
2018-11-25T13:35:23.319Z,16.67
2018-11-25T13:37:51.920Z,15.70
2018-11-25T13:40:20.550Z,17.23
2018-11-25T13:42:49.147Z,14.90
2018-11-25T13:45:17.796Z,16.00
2018-11-25T13:47:46.443Z,16.57
2018-11-25T13:50:15.024Z,16.33
2018-11-25T13:52:43.607Z,15.43
2018-11-25T13:55:15.736Z,15.33
2018-11-25T13:57:44.739Z,16.17
2018-11-25T14:00:19.775Z,17.13
2018-11-25T14:02:48.380Z,17.67
2018-11-25T14:05:17.311Z,15.57
2018-11-25T14:07:49.420Z,15.43
2018-11-25T14:10:23.123Z,16.77
2018-11-25T14:12:51.744Z,14.03
2018-11-25T14:15:20.364Z,14.70
2018-11-25T14:17:48.970Z,14.97
2018-11-25T14:20:17.579Z,15.70
2018-11-25T14:22:46.188Z,15.23
2018-11-25T14:25:16.522Z,15.83
2018-11-25T14:27:45.928Z,15.50
2018-11-25T14:30:20.266Z,15.50
2018-11-25T14:32:48.868Z,17.13
2018-11-25T14:35:17.921Z,16.80
2018-11-25T14:37:46.592Z,15.73
2018-11-25T14:40:16.748Z,16.10
2018-11-25T14:42:45.350Z,13.93
2018-11-25T14:45:16.384Z,16.47
2018-11-25T14:47:44.992Z,15.07
2018-11-25T14:50:14.964Z,15.77
2018-11-25T14:52:44.687Z,19.67
2018-11-25T14:55:14.066Z,21.97
2018-11-25T14:57:42.742Z,21.63
2018-11-25T15:00:12.948Z,23.80
2018-11-25T15:02:41.886Z,21.03
2018-11-25T15:05:16.856Z,20.50
2018-11-25T15:07:45.455Z,21.43
2018-11-25T15:10:14.049Z,19.33
2018-11-25T15:12:42.675Z,20.20
2018-11-25T15:15:12.781Z,20.10
2018-11-25T15:17:42.502Z,20.70
2018-11-25T15:20:12.163Z,18.40
2018-11-25T15:22:41.892Z,20.17
2018-11-25T15:25:15.627Z,24.67
2018-11-25T15:27:44.228Z,21.63
2018-11-25T15:30:14.872Z,21.00
2018-11-25T15:32:43.487Z,26.97
2018-11-25T15:35:12.901Z,24.17
2018-11-25T15:37:43.353Z,30.97
2018-11-25T15:40:14.881Z,45.27
2018-11-25T15:42:43.500Z,43.17
2018-11-25T15:45:12.235Z,40.93
2018-11-25T15:47:42.681Z,36.37
2018-11-25T15:50:14.050Z,37.07
2018-11-25T15:52:42.705Z,31.97
2018-11-25T15:55:13.847Z,30.20
2018-11-25T15:57:42.451Z,28.30
2018-11-25T16:00:14.005Z,30.33
2018-11-25T16:02:42.640Z,25.40
2018-11-25T16:05:15.778Z,29.90
2018-11-25T16:07:44.432Z,34.53
2018-11-25T16:10:16.701Z,33.37
2018-11-25T16:12:46.665Z,32.57
2018-11-25T16:15:16.568Z,40.60
2018-11-25T16:17:45.208Z,41.40
2018-11-25T16:20:19.193Z,45.33
2018-11-25T16:22:49.248Z,38.33
2018-11-25T16:25:21.962Z,32.33
2018-11-25T16:27:52.365Z,29.80
2018-11-25T16:30:20.991Z,30.50
2018-11-25T16:32:49.621Z,33.77
2018-11-25T16:35:18.220Z,33.87
2018-11-25T16:37:46.849Z,34.30
2018-11-25T16:40:16.422Z,33.80
2018-11-25T16:42:45.223Z,31.03
2018-11-25T16:45:15.129Z,32.50
2018-11-25T16:47:43.815Z,32.57
2018-11-25T16:50:24.986Z,51.13
2018-11-25T16:52:46.307Z,43.47
2018-11-25T16:55:15.598Z,39.40
2018-11-25T16:57:44.764Z,35.13
2018-11-25T17:00:16.653Z,33.80
2018-11-25T17:02:45.292Z,30.10
2018-11-25T17:05:23.218Z,27.60
2018-11-25T17:07:53.771Z,25.80
2018-11-25T17:10:22.372Z,22.87
2018-11-25T17:12:51.116Z,22.23
2018-11-25T17:15:21.401Z,24.10
2018-11-25T17:17:50.019Z,22.87
2018-11-25T17:20:18.665Z,20.90
2018-11-25T17:22:47.264Z,19.57
2018-11-25T17:25:15.881Z,21.50
2018-11-25T17:27:44.555Z,21.93
2018-11-25T17:30:17.240Z,22.60
2018-11-25T17:32:47.100Z,21.57
2018-11-25T17:35:18.443Z,46.97
2018-11-25T17:37:47.079Z,47.23
2018-11-25T17:40:15.683Z,64.57
2018-11-25T17:42:44.307Z,53.70
2018-11-25T17:45:13.499Z,57.70
2018-11-25T17:47:42.551Z,65.23
2018-11-25T17:50:20.411Z,47.87
2018-11-25T17:52:49.403Z,44.30
2018-11-25T17:55:19.122Z,38.97
2018-11-25T17:57:47.782Z,35.90
2018-11-25T18:00:33.087Z,34.60
2018-11-25T18:03:01.687Z,30.20
2018-11-25T18:05:38.423Z,31.50
2018-11-25T18:07:59.324Z,31.47
2018-11-25T18:10:27.953Z,32.93
2018-11-25T18:12:56.560Z,30.13
2018-11-25T18:15:25.194Z,30.33
2018-11-25T18:18:10.743Z,30.07
2018-11-25T18:20:42.703Z,26.90
2018-11-25T18:23:11.306Z,28.70
2018-11-25T18:25:39.907Z,26.70
2018-11-25T18:28:08.644Z,25.70
2018-11-25T18:30:37.243Z,27.53
2018-11-25T18:33:05.899Z,24.27
2018-11-25T18:35:34.522Z,26.93
2018-11-25T18:38:03.127Z,29.17
2018-11-25T18:40:31.752Z,25.20
2018-11-25T18:43:00.348Z,23.73
2018-11-25T18:45:28.978Z,25.53
2018-11-25T18:47:57.595Z,25.20
2018-11-25T18:50:26.187Z,24.47
2018-11-25T18:52:55.220Z,22.43
2018-11-25T18:55:22.604Z,26.10
2018-11-25T18:57:51.411Z,23.30
2018-11-25T19:00:36.836Z,23.17
2018-11-25T19:03:05.651Z,24.67
2018-11-25T19:05:34.362Z,21.63
2018-11-25T19:08:02.968Z,22.60
2018-11-25T19:10:31.595Z,23.57
2018-11-25T19:13:00.192Z,23.17
2018-11-25T19:15:28.848Z,22.07
2018-11-25T19:17:57.476Z,23.20
2018-11-25T19:20:27.247Z,21.87
2018-11-25T19:22:56.635Z,21.57
2018-11-25T19:25:25.234Z,21.97
2018-11-25T19:27:54.391Z,21.77
2018-11-25T19:30:26.724Z,24.87
2018-11-25T19:32:51.670Z,23.53
2018-11-25T19:35:21.513Z,23.47
2018-11-25T19:37:50.996Z,21.33
2018-11-25T19:40:21.227Z,21.73
2018-11-25T19:42:50.076Z,22.07
2018-11-25T19:45:21.044Z,24.13
2018-11-25T19:47:49.697Z,23.87
2018-11-25T19:50:21.060Z,22.33
2018-11-25T19:52:49.652Z,22.23
2018-11-25T19:55:18.307Z,20.97
2018-11-25T19:57:46.936Z,21.47
2018-11-25T20:00:17.769Z,25.40
2018-11-25T20:02:46.417Z,25.17
2018-11-25T20:05:15.118Z,23.13
2018-11-25T20:07:44.168Z,25.10
2018-11-25T20:10:15.183Z,24.60
2018-11-25T20:12:46.743Z,21.63
2018-11-25T20:15:17.271Z,25.60
2018-11-25T20:17:54.126Z,24.00
2018-11-25T20:20:17.027Z,24.23
2018-11-25T20:22:45.872Z,25.53
2018-11-25T20:25:15.053Z,23.60
2018-11-25T20:27:59.159Z,24.10
2018-11-25T20:30:29.449Z,22.80
2018-11-25T20:33:03.311Z,23.20
2018-11-25T20:35:31.993Z,21.97
2018-11-25T20:38:06.043Z,24.27
2018-11-25T20:40:34.659Z,22.57
2018-11-25T20:43:03.269Z,22.70
2018-11-25T20:45:39.051Z,22.80
2018-11-25T20:48:06.123Z,23.83
2018-11-25T20:50:34.743Z,22.57
2018-11-25T20:53:08.724Z,22.27
2018-11-25T20:55:37.431Z,22.30
2018-11-25T20:58:07.621Z,21.13
2018-11-25T21:00:36.444Z,20.60
2018-11-25T21:03:05.899Z,20.90
2018-11-25T21:05:34.528Z,21.90
2018-11-25T21:08:03.180Z,20.43
2018-11-25T21:10:31.793Z,23.10
2018-11-25T21:13:00.785Z,19.30
2018-11-25T21:15:29.376Z,19.60
2018-11-25T21:17:58.000Z,21.40
2018-11-25T21:20:27.075Z,21.07
2018-11-25T21:22:55.703Z,20.97
2018-11-25T21:25:24.528Z,18.50
2018-11-25T21:27:54.176Z,21.73
2018-11-25T21:30:25.006Z,20.80
2018-11-25T21:32:55.860Z,19.30
2018-11-25T21:35:24.467Z,18.43
2018-11-25T21:37:53.097Z,20.77
2018-11-25T21:40:33.653Z,18.70
2018-11-25T21:43:02.632Z,18.40
2018-11-25T21:45:31.263Z,19.40
2018-11-25T21:47:59.952Z,19.50
2018-11-25T21:50:29.235Z,19.50
2018-11-25T21:52:57.907Z,20.40
2018-11-25T21:55:26.533Z,17.27
2018-11-25T21:57:55.168Z,20.33
2018-11-25T22:00:24.823Z,21.97
2018-11-25T22:02:53.428Z,21.70
2018-11-25T22:05:24.835Z,21.40
2018-11-25T22:07:50.707Z,20.23
2018-11-25T22:10:20.365Z,22.00
2018-11-25T22:12:49.515Z,21.70
2018-11-25T22:15:21.529Z,18.60
2018-11-25T22:17:50.239Z,21.10
2018-11-25T22:20:19.139Z,22.90
2018-11-25T22:22:47.772Z,18.00
2018-11-25T22:25:17.606Z,20.23
2018-11-25T22:27:46.289Z,21.30
2018-11-25T22:30:15.979Z,19.80
2018-11-25T22:32:44.623Z,21.20
2018-11-25T22:35:27.642Z,21.47
2018-11-25T22:38:08.852Z,23.10
2018-11-25T22:40:49.292Z,20.90
2018-11-25T22:43:31.236Z,20.47
2018-11-25T22:46:11.684Z,22.63
2018-11-25T22:48:52.490Z,21.47
2018-11-25T22:51:32.701Z,19.50
2018-11-25T22:54:13.624Z,20.70
2018-11-25T22:56:55.801Z,21.77
2018-11-25T22:59:36.402Z,21.87
2018-11-25T23:02:17.656Z,20.07
2018-11-25T23:05:03.250Z,21.30
2018-11-25T23:07:44.087Z,19.93
2018-11-25T23:10:24.622Z,22.13
2018-11-25T23:13:04.692Z,20.17
2018-11-25T23:15:47.890Z,20.40
2018-11-25T23:18:28.075Z,22.20
2018-11-25T23:21:09.405Z,20.77
2018-11-25T23:23:49.623Z,21.23
2018-11-25T23:26:32.211Z,19.07
2018-11-25T23:29:12.571Z,20.37
2018-11-25T23:31:53.115Z,20.80
2018-11-25T23:34:35.766Z,20.43
2018-11-25T23:37:16.403Z,20.77
2018-11-25T23:39:56.598Z,19.97
2018-11-25T23:42:37.192Z,19.30
2018-11-25T23:45:21.088Z,21.10
2018-11-25T23:48:01.755Z,19.13
2018-11-25T23:50:43.990Z,20.30
2018-11-25T23:53:23.997Z,19.30
2018-11-25T23:56:04.682Z,22.57
2018-11-25T23:58:45.807Z,17.13
